sensor_id;sensor_type;location;lat;lon;timestamp;temperature;humidity
35129;DHT22;21301;43.626;10.580;2022-12-16T00:01:50;12.50;99.90
35129;DHT22;21301;43.626;10.580;2022-12-16T00:04:16;12.40;99.90
35129;DHT22;21301;43.626;10.580;2022-12-16T00:06:42;12.40;99.90
35129;DHT22;21301;43.626;10.580;2022-12-16T00:09:08;12.50;99.90
35129;DHT22;21301;43.626;10.580;2022-12-16T00:11:34;12.40;99.90
35129;DHT22;21301;43.626;10.580;2022-12-16T00:14:00;12.50;99.90
35129;DHT22;21301;43.626;10.580;2022-12-16T00:16:26;12.40;99.90
35129;DHT22;21301;43.626;10.580;2022-12-16T00:18:52;12.50;99.90
35129;DHT22;21301;43.626;10.580;2022-12-16T00:21:18;12.50;99.90
35129;DHT22;21301;43.626;10.580;2022-12-16T00:23:44;12.50;99.90
35129;DHT22;21301;43.626;10.580;2022-12-16T00:26:11;12.40;99.90
35129;DHT22;21301;43.626;10.580;2022-12-16T00:28:38;12.50;99.90
35129;DHT22;21301;43.626;10.580;2022-12-16T00:31:04;12.40;99.90
35129;DHT22;21301;43.626;10.580;2022-12-16T00:33:30;12.50;99.90
35129;DHT22;21301;43.626;10.580;2022-12-16T00:35:57;12.50;99.90
35129;DHT22;21301;43.626;10.580;2022-12-16T00:38:24;12.50;99.90
35129;DHT22;21301;43.626;10.580;2022-12-16T00:40:50;12.60;99.90
35129;DHT22;21301;43.626;10.580;2022-12-16T00:43:16;12.50;99.90
35129;DHT22;21301;43.626;10.580;2022-12-16T00:45:43;12.50;99.90
35129;DHT22;21301;43.626;10.580;2022-12-16T00:48:09;12.60;99.90
35129;DHT22;21301;43.626;10.580;2022-12-16T00:50:36;12.80;99.90
35129;DHT22;21301;43.626;10.580;2022-12-16T00:53:02;12.80;99.90
35129;DHT22;21301;43.626;10.580;2022-12-16T00:55:29;12.70;99.90
35129;DHT22;21301;43.626;10.580;2022-12-16T00:57:54;12.90;99.90
35129;DHT22;21301;43.626;10.580;2022-12-16T01:00:21;12.80;99.90
35129;DHT22;21301;43.626;10.580;2022-12-16T01:02:48;12.60;99.90
35129;DHT22;21301;43.626;10.580;2022-12-16T01:05:16;12.60;99.90
35129;DHT22;21301;43.626;10.580;2022-12-16T01:07:42;12.50;99.90
35129;DHT22;21301;43.626;10.580;2022-12-16T01:10:09;12.50;99.90
35129;DHT22;21301;43.626;10.580;2022-12-16T01:12:36;12.40;99.90
35129;DHT22;21301;43.626;10.580;2022-12-16T01:15:03;12.50;99.90
35129;DHT22;21301;43.626;10.580;2022-12-16T01:17:30;12.60;99.90
35129;DHT22;21301;43.626;10.580;2022-12-16T01:19:56;12.70;99.90
35129;DHT22;21301;43.626;10.580;2022-12-16T01:22:22;12.50;99.90
35129;DHT22;21301;43.626;10.580;2022-12-16T01:24:48;12.40;99.90
35129;DHT22;21301;43.626;10.580;2022-12-16T01:27:14;12.50;99.90
35129;DHT22;21301;43.626;10.580;2022-12-16T01:29:40;12.50;99.90
35129;DHT22;21301;43.626;10.580;2022-12-16T01:32:07;12.60;99.90
35129;DHT22;21301;43.626;10.580;2022-12-16T01:34:33;12.70;99.90
35129;DHT22;21301;43.626;10.580;2022-12-16T01:36:59;12.70;99.90
35129;DHT22;21301;43.626;10.580;2022-12-16T01:39:25;12.50;99.90
35129;DHT22;21301;43.626;10.580;2022-12-16T01:41:52;12.40;99.90
35129;DHT22;21301;43.626;10.580;2022-12-16T01:44:21;12.40;99.90
35129;DHT22;21301;43.626;10.580;2022-12-16T01:46:56;12.40;99.90
35129;DHT22;21301;43.626;10.580;2022-12-16T01:49:29;12.40;99.90
35129;DHT22;21301;43.626;10.580;2022-12-16T01:52:02;12.40;99.90
35129;DHT22;21301;43.626;10.580;2022-12-16T01:54:35;12.40;99.90
35129;DHT22;21301;43.626;10.580;2022-12-16T01:57:07;12.50;99.90
35129;DHT22;21301;43.626;10.580;2022-12-16T01:59:36;12.60;99.90
35129;DHT22;21301;43.626;10.580;2022-12-16T02:02:03;12.60;99.90
35129;DHT22;21301;43.626;10.580;2022-12-16T02:04:30;12.70;99.90
35129;DHT22;21301;43.626;10.580;2022-12-16T02:06:56;12.80;99.90
35129;DHT22;21301;43.626;10.580;2022-12-16T02:09:22;12.80;99.90
35129;DHT22;21301;43.626;10.580;2022-12-16T02:12:10;12.80;99.90
35129;DHT22;21301;43.626;10.580;2022-12-16T02:15:11;12.80;99.90
35129;DHT22;21301;43.626;10.580;2022-12-16T02:29:26;12.40;99.90
35129;DHT22;21301;43.626;10.580;2022-12-16T02:37:36;12.50;99.90
35129;DHT22;21301;43.626;10.580;2022-12-16T02:40:13;12.60;99.90
35129;DHT22;21301;43.626;10.580;2022-12-16T02:42:49;12.50;99.90
35129;DHT22;21301;43.626;10.580;2022-12-16T02:45:25;12.60;99.90
35129;DHT22;21301;43.626;10.580;2022-12-16T02:47:52;12.50;99.90
35129;DHT22;21301;43.626;10.580;2022-12-16T02:50:22;12.20;99.90
35129;DHT22;21301;43.626;10.580;2022-12-16T02:52:49;12.10;99.90
35129;DHT22;21301;43.626;10.580;2022-12-16T02:55:15;12.10;99.90
35129;DHT22;21301;43.626;10.580;2022-12-16T02:58:03;12.10;99.90
35129;DHT22;21301;43.626;10.580;2022-12-16T03:00:47;12.10;99.90
35129;DHT22;21301;43.626;10.580;2022-12-16T03:03:25;12.20;99.90
35129;DHT22;21301;43.626;10.580;2022-12-16T03:05:54;12.20;99.90
35129;DHT22;21301;43.626;10.580;2022-12-16T03:08:33;12.20;99.90
35129;DHT22;21301;43.626;10.580;2022-12-16T03:11:02;12.30;99.90
35129;DHT22;21301;43.626;10.580;2022-12-16T03:13:36;12.30;99.90
35129;DHT22;21301;43.626;10.580;2022-12-16T03:16:05;12.30;99.90
35129;DHT22;21301;43.626;10.580;2022-12-16T03:18:32;12.30;99.90
35129;DHT22;21301;43.626;10.580;2022-12-16T03:21:02;12.40;99.90
35129;DHT22;21301;43.626;10.580;2022-12-16T03:23:59;12.40;99.90
35129;DHT22;21301;43.626;10.580;2022-12-16T03:26:33;12.40;99.90
35129;DHT22;21301;43.626;10.580;2022-12-16T03:29:18;12.20;99.90
35129;DHT22;21301;43.626;10.580;2022-12-16T03:31:58;12.40;99.90
35129;DHT22;21301;43.626;10.580;2022-12-16T03:34:39;12.40;99.90
35129;DHT22;21301;43.626;10.580;2022-12-16T03:37:09;12.50;99.90
35129;DHT22;21301;43.626;10.580;2022-12-16T03:39:48;12.40;99.90
35129;DHT22;21301;43.626;10.580;2022-12-16T03:42:15;12.30;99.90
35129;DHT22;21301;43.626;10.580;2022-12-16T03:44:43;12.20;99.90
35129;DHT22;21301;43.626;10.580;2022-12-16T03:47:09;12.40;99.90
35129;DHT22;21301;43.626;10.580;2022-12-16T03:49:35;12.40;99.90
35129;DHT22;21301;43.626;10.580;2022-12-16T03:52:01;12.30;99.90
35129;DHT22;21301;43.626;10.580;2022-12-16T03:54:27;12.30;99.90
35129;DHT22;21301;43.626;10.580;2022-12-16T03:56:53;12.30;99.90
35129;DHT22;21301;43.626;10.580;2022-12-16T03:59:19;12.40;99.90
35129;DHT22;21301;43.626;10.580;2022-12-16T04:01:45;12.40;99.90
35129;DHT22;21301;43.626;10.580;2022-12-16T04:04:11;12.60;99.90
35129;DHT22;21301;43.626;10.580;2022-12-16T04:06:37;12.70;99.90
35129;DHT22;21301;43.626;10.580;2022-12-16T04:09:03;12.60;99.90
35129;DHT22;21301;43.626;10.580;2022-12-16T04:11:29;12.70;99.90
35129;DHT22;21301;43.626;10.580;2022-12-16T04:14:14;12.70;99.90
35129;DHT22;21301;43.626;10.580;2022-12-16T04:16:58;12.60;99.90
35129;DHT22;21301;43.626;10.580;2022-12-16T04:19:43;12.60;99.90
35129;DHT22;21301;43.626;10.580;2022-12-16T04:22:32;12.60;99.90
35129;DHT22;21301;43.626;10.580;2022-12-16T04:25:24;12.60;99.90
35129;DHT22;21301;43.626;10.580;2022-12-16T04:27:51;12.60;99.90
35129;DHT22;21301;43.626;10.580;2022-12-16T04:30:19;12.50;99.90
35129;DHT22;21301;43.626;10.580;2022-12-16T04:32:46;12.50;99.90
35129;DHT22;21301;43.626;10.580;2022-12-16T04:35:42;12.50;99.90
35129;DHT22;21301;43.626;10.580;2022-12-16T04:38:26;12.50;99.90
35129;DHT22;21301;43.626;10.580;2022-12-16T04:41:11;12.40;99.90
35129;DHT22;21301;43.626;10.580;2022-12-16T04:43:55;12.40;99.90
35129;DHT22;21301;43.626;10.580;2022-12-16T04:46:39;12.40;99.90
35129;DHT22;21301;43.626;10.580;2022-12-16T04:49:24;12.40;99.90
35129;DHT22;21301;43.626;10.580;2022-12-16T04:52:08;12.30;99.90
35129;DHT22;21301;43.626;10.580;2022-12-16T04:54:53;12.40;99.90
35129;DHT22;21301;43.626;10.580;2022-12-16T04:57:38;12.40;99.90
35129;DHT22;21301;43.626;10.580;2022-12-16T05:00:22;12.40;99.90
35129;DHT22;21301;43.626;10.580;2022-12-16T05:03:06;12.40;99.90
35129;DHT22;21301;43.626;10.580;2022-12-16T05:05:51;12.40;99.90
35129;DHT22;21301;43.626;10.580;2022-12-16T05:08:35;12.40;99.90
35129;DHT22;21301;43.626;10.580;2022-12-16T05:11:20;12.30;99.90
35129;DHT22;21301;43.626;10.580;2022-12-16T05:14:04;12.30;99.90
35129;DHT22;21301;43.626;10.580;2022-12-16T05:16:53;12.20;99.90
35129;DHT22;21301;43.626;10.580;2022-12-16T05:19:37;12.20;99.90
35129;DHT22;21301;43.626;10.580;2022-12-16T05:22:21;12.20;99.90
35129;DHT22;21301;43.626;10.580;2022-12-16T05:25:06;12.20;99.90
35129;DHT22;21301;43.626;10.580;2022-12-16T05:27:51;12.10;99.90
35129;DHT22;21301;43.626;10.580;2022-12-16T05:30:36;11.90;99.90
35129;DHT22;21301;43.626;10.580;2022-12-16T05:33:20;11.90;99.90
35129;DHT22;21301;43.626;10.580;2022-12-16T05:36:05;11.90;99.90
35129;DHT22;21301;43.626;10.580;2022-12-16T05:38:51;11.80;99.90
35129;DHT22;21301;43.626;10.580;2022-12-16T05:41:35;11.80;99.90
35129;DHT22;21301;43.626;10.580;2022-12-16T05:44:19;11.80;99.90
35129;DHT22;21301;43.626;10.580;2022-12-16T05:47:03;11.90;99.90
35129;DHT22;21301;43.626;10.580;2022-12-16T05:49:48;11.80;99.90
35129;DHT22;21301;43.626;10.580;2022-12-16T05:52:32;11.80;99.90
35129;DHT22;21301;43.626;10.580;2022-12-16T05:55:17;11.90;99.90
35129;DHT22;21301;43.626;10.580;2022-12-16T05:58:01;11.90;99.90
35129;DHT22;21301;43.626;10.580;2022-12-16T06:00:46;11.90;99.90
35129;DHT22;21301;43.626;10.580;2022-12-16T06:03:30;11.90;99.90
35129;DHT22;21301;43.626;10.580;2022-12-16T06:06:15;11.90;99.90
35129;DHT22;21301;43.626;10.580;2022-12-16T06:08:59;12.00;99.90
35129;DHT22;21301;43.626;10.580;2022-12-16T06:11:44;12.10;99.90
35129;DHT22;21301;43.626;10.580;2022-12-16T06:14:28;12.10;99.90
35129;DHT22;21301;43.626;10.580;2022-12-16T06:17:13;12.10;99.90
35129;DHT22;21301;43.626;10.580;2022-12-16T06:19:57;12.10;99.90
35129;DHT22;21301;43.626;10.580;2022-12-16T06:22:41;12.00;99.90
35129;DHT22;21301;43.626;10.580;2022-12-16T06:25:26;11.90;99.90
35129;DHT22;21301;43.626;10.580;2022-12-16T06:28:10;12.00;99.90
35129;DHT22;21301;43.626;10.580;2022-12-16T06:30:55;12.00;99.90
35129;DHT22;21301;43.626;10.580;2022-12-16T06:33:39;12.10;99.90
35129;DHT22;21301;43.626;10.580;2022-12-16T06:36:23;12.10;99.90
35129;DHT22;21301;43.626;10.580;2022-12-16T06:39:08;12.20;99.90
35129;DHT22;21301;43.626;10.580;2022-12-16T06:41:52;12.20;99.90
35129;DHT22;21301;43.626;10.580;2022-12-16T06:44:37;12.20;99.90
35129;DHT22;21301;43.626;10.580;2022-12-16T06:47:21;12.10;99.90
35129;DHT22;21301;43.626;10.580;2022-12-16T06:50:06;12.10;99.90
35129;DHT22;21301;43.626;10.580;2022-12-16T06:52:50;12.20;99.90
35129;DHT22;21301;43.626;10.580;2022-12-16T06:55:35;12.10;99.90
35129;DHT22;21301;43.626;10.580;2022-12-16T06:58:19;12.10;99.90
35129;DHT22;21301;43.626;10.580;2022-12-16T07:01:04;12.00;99.90
35129;DHT22;21301;43.626;10.580;2022-12-16T07:03:48;12.00;99.90
35129;DHT22;21301;43.626;10.580;2022-12-16T07:06:33;12.00;99.90
35129;DHT22;21301;43.626;10.580;2022-12-16T07:09:17;12.00;99.90
35129;DHT22;21301;43.626;10.580;2022-12-16T07:12:02;12.00;99.90
35129;DHT22;21301;43.626;10.580;2022-12-16T07:14:47;12.00;99.90
35129;DHT22;21301;43.626;10.580;2022-12-16T07:17:31;12.00;99.90
35129;DHT22;21301;43.626;10.580;2022-12-16T07:20:23;12.00;99.90
35129;DHT22;21301;43.626;10.580;2022-12-16T07:23:08;12.00;99.90
35129;DHT22;21301;43.626;10.580;2022-12-16T07:25:52;12.00;99.90
35129;DHT22;21301;43.626;10.580;2022-12-16T07:28:37;12.00;99.90
35129;DHT22;21301;43.626;10.580;2022-12-16T07:31:21;12.10;99.90
35129;DHT22;21301;43.626;10.580;2022-12-16T07:34:06;12.10;99.90
35129;DHT22;21301;43.626;10.580;2022-12-16T07:36:51;12.10;99.90
35129;DHT22;21301;43.626;10.580;2022-12-16T07:39:35;12.00;99.90
35129;DHT22;21301;43.626;10.580;2022-12-16T07:42:19;12.10;99.90
35129;DHT22;21301;43.626;10.580;2022-12-16T07:45:04;12.10;99.90
35129;DHT22;21301;43.626;10.580;2022-12-16T07:47:50;12.10;99.90
35129;DHT22;21301;43.626;10.580;2022-12-16T07:50:35;12.10;99.90
35129;DHT22;21301;43.626;10.580;2022-12-16T07:53:20;12.10;99.90
35129;DHT22;21301;43.626;10.580;2022-12-16T07:56:05;12.20;99.90
35129;DHT22;21301;43.626;10.580;2022-12-16T07:58:50;12.10;99.90
35129;DHT22;21301;43.626;10.580;2022-12-16T08:01:34;12.10;99.90
35129;DHT22;21301;43.626;10.580;2022-12-16T08:04:18;12.10;99.90
35129;DHT22;21301;43.626;10.580;2022-12-16T08:07:03;12.10;99.90
35129;DHT22;21301;43.626;10.580;2022-12-16T08:09:48;12.10;99.90
35129;DHT22;21301;43.626;10.580;2022-12-16T08:12:32;12.10;99.90
35129;DHT22;21301;43.626;10.580;2022-12-16T08:15:17;12.10;99.90
35129;DHT22;21301;43.626;10.580;2022-12-16T08:18:01;12.10;99.90
35129;DHT22;21301;43.626;10.580;2022-12-16T08:20:45;12.10;99.90
35129;DHT22;21301;43.626;10.580;2022-12-16T08:23:29;12.10;99.90
35129;DHT22;21301;43.626;10.580;2022-12-16T08:26:15;12.10;99.90
35129;DHT22;21301;43.626;10.580;2022-12-16T08:28:59;12.10;99.90
35129;DHT22;21301;43.626;10.580;2022-12-16T08:31:44;12.10;99.90
35129;DHT22;21301;43.626;10.580;2022-12-16T08:34:28;12.10;99.90
35129;DHT22;21301;43.626;10.580;2022-12-16T08:37:12;12.10;99.90
35129;DHT22;21301;43.626;10.580;2022-12-16T08:39:57;12.20;99.90
35129;DHT22;21301;43.626;10.580;2022-12-16T08:42:41;12.10;99.90
35129;DHT22;21301;43.626;10.580;2022-12-16T08:45:26;12.20;99.90
35129;DHT22;21301;43.626;10.580;2022-12-16T08:48:10;12.20;99.90
35129;DHT22;21301;43.626;10.580;2022-12-16T08:50:55;12.20;99.90
35129;DHT22;21301;43.626;10.580;2022-12-16T08:53:40;12.30;99.90
35129;DHT22;21301;43.626;10.580;2022-12-16T08:56:24;12.30;99.90
35129;DHT22;21301;43.626;10.580;2022-12-16T08:59:09;12.40;99.90
35129;DHT22;21301;43.626;10.580;2022-12-16T09:01:53;12.50;99.90
35129;DHT22;21301;43.626;10.580;2022-12-16T09:04:38;12.60;99.90
35129;DHT22;21301;43.626;10.580;2022-12-16T09:07:22;12.60;99.90
35129;DHT22;21301;43.626;10.580;2022-12-16T09:10:06;12.70;99.90
35129;DHT22;21301;43.626;10.580;2022-12-16T09:12:50;12.70;99.90
35129;DHT22;21301;43.626;10.580;2022-12-16T09:15:35;12.80;99.90
35129;DHT22;21301;43.626;10.580;2022-12-16T09:18:19;12.80;99.90
35129;DHT22;21301;43.626;10.580;2022-12-16T09:21:03;12.80;99.90
35129;DHT22;21301;43.626;10.580;2022-12-16T09:24:08;13.00;99.90
35129;DHT22;21301;43.626;10.580;2022-12-16T09:26:52;13.00;99.90
35129;DHT22;21301;43.626;10.580;2022-12-16T09:29:37;12.90;99.90
35129;DHT22;21301;43.626;10.580;2022-12-16T09:32:21;13.00;99.90
35129;DHT22;21301;43.626;10.580;2022-12-16T09:35:06;13.00;99.90
35129;DHT22;21301;43.626;10.580;2022-12-16T09:37:50;13.10;99.90
35129;DHT22;21301;43.626;10.580;2022-12-16T09:40:37;13.10;99.90
35129;DHT22;21301;43.626;10.580;2022-12-16T09:44:00;13.10;99.90
35129;DHT22;21301;43.626;10.580;2022-12-16T09:46:57;13.10;99.90
35129;DHT22;21301;43.626;10.580;2022-12-16T09:49:51;13.00;99.90
35129;DHT22;21301;43.626;10.580;2022-12-16T09:52:57;13.00;99.90
35129;DHT22;21301;43.626;10.580;2022-12-16T09:55:43;13.00;99.90
35129;DHT22;21301;43.626;10.580;2022-12-16T09:58:35;13.00;99.90
35129;DHT22;21301;43.626;10.580;2022-12-16T10:01:20;13.00;99.90
35129;DHT22;21301;43.626;10.580;2022-12-16T10:04:08;13.00;99.90
35129;DHT22;21301;43.626;10.580;2022-12-16T10:06:58;12.90;99.90
35129;DHT22;21301;43.626;10.580;2022-12-16T10:10:05;12.90;99.90
35129;DHT22;21301;43.626;10.580;2022-12-16T10:13:02;12.90;99.90
35129;DHT22;21301;43.626;10.580;2022-12-16T10:19:01;12.80;99.90
35129;DHT22;21301;43.626;10.580;2022-12-16T10:27:48;12.80;99.90
35129;DHT22;21301;43.626;10.580;2022-12-16T10:30:36;12.70;99.90
35129;DHT22;21301;43.626;10.580;2022-12-16T10:33:24;12.70;99.90
35129;DHT22;21301;43.626;10.580;2022-12-16T10:36:15;12.70;99.90
35129;DHT22;21301;43.626;10.580;2022-12-16T10:39:04;12.70;99.90
35129;DHT22;21301;43.626;10.580;2022-12-16T10:41:51;12.80;99.90
35129;DHT22;21301;43.626;10.580;2022-12-16T10:47:27;12.70;99.90
35129;DHT22;21301;43.626;10.580;2022-12-16T10:50:12;12.70;99.90
35129;DHT22;21301;43.626;10.580;2022-12-16T10:53:13;12.80;99.90
35129;DHT22;21301;43.626;10.580;2022-12-16T10:59:18;12.80;99.90
35129;DHT22;21301;43.626;10.580;2022-12-16T11:02:20;12.80;99.90
35129;DHT22;21301;43.626;10.580;2022-12-16T11:08:29;12.80;99.90
35129;DHT22;21301;43.626;10.580;2022-12-16T11:11:22;12.90;99.90
35129;DHT22;21301;43.626;10.580;2022-12-16T11:20:22;12.90;99.90
35129;DHT22;21301;43.626;10.580;2022-12-16T11:23:23;12.90;99.90
35129;DHT22;21301;43.626;10.580;2022-12-16T11:26:16;12.90;99.90
35129;DHT22;21301;43.626;10.580;2022-12-16T11:32:21;12.90;99.90
35129;DHT22;21301;43.626;10.580;2022-12-16T11:35:17;13.00;99.90
35129;DHT22;21301;43.626;10.580;2022-12-16T11:38:03;13.10;99.90
35129;DHT22;21301;43.626;10.580;2022-12-16T11:40:49;13.20;99.90
35129;DHT22;21301;43.626;10.580;2022-12-16T11:43:35;13.30;99.90
35129;DHT22;21301;43.626;10.580;2022-12-16T11:46:27;13.30;99.90
35129;DHT22;21301;43.626;10.580;2022-12-16T11:49:32;13.40;99.90
35129;DHT22;21301;43.626;10.580;2022-12-16T11:52:18;13.40;99.90
35129;DHT22;21301;43.626;10.580;2022-12-16T11:55:24;13.40;99.90
35129;DHT22;21301;43.626;10.580;2022-12-16T11:58:25;13.60;99.90
35129;DHT22;21301;43.626;10.580;2022-12-16T12:01:17;13.60;99.90
35129;DHT22;21301;43.626;10.580;2022-12-16T12:04:03;13.80;99.90
35129;DHT22;21301;43.626;10.580;2022-12-16T12:10:06;14.00;99.90
35129;DHT22;21301;43.626;10.580;2022-12-16T12:13:03;14.10;99.90
35129;DHT22;21301;43.626;10.580;2022-12-16T12:16:07;14.40;99.90
35129;DHT22;21301;43.626;10.580;2022-12-16T12:22:31;14.50;99.90
35129;DHT22;21301;43.626;10.580;2022-12-16T12:25:24;14.40;99.90
35129;DHT22;21301;43.626;10.580;2022-12-16T12:31:28;14.30;99.90
35129;DHT22;21301;43.626;10.580;2022-12-16T12:34:45;14.20;99.90
35129;DHT22;21301;43.626;10.580;2022-12-16T12:37:40;14.20;99.90
35129;DHT22;21301;43.626;10.580;2022-12-16T12:52:35;13.90;99.90
35129;DHT22;21301;43.626;10.580;2022-12-16T12:55:30;13.90;99.90
35129;DHT22;21301;43.626;10.580;2022-12-16T12:58:18;13.90;99.90
35129;DHT22;21301;43.626;10.580;2022-12-16T13:01:04;13.90;99.90
35129;DHT22;21301;43.626;10.580;2022-12-16T13:04:06;13.90;99.90
35129;DHT22;21301;43.626;10.580;2022-12-16T13:06:53;14.10;99.90
35129;DHT22;21301;43.626;10.580;2022-12-16T13:09:38;14.20;99.90
35129;DHT22;21301;43.626;10.580;2022-12-16T13:15:35;14.20;99.90
35129;DHT22;21301;43.626;10.580;2022-12-16T13:18:21;14.30;99.90
35129;DHT22;21301;43.626;10.580;2022-12-16T13:27:12;14.60;99.90
35129;DHT22;21301;43.626;10.580;2022-12-16T13:30:05;14.50;99.90
35129;DHT22;21301;43.626;10.580;2022-12-16T13:33:04;14.50;99.90
35129;DHT22;21301;43.626;10.580;2022-12-16T13:35:57;14.70;99.90
35129;DHT22;21301;43.626;10.580;2022-12-16T13:38:49;14.70;99.90
35129;DHT22;21301;43.626;10.580;2022-12-16T13:50:41;14.50;99.90
35129;DHT22;21301;43.626;10.580;2022-12-16T13:53:37;14.50;99.90
35129;DHT22;21301;43.626;10.580;2022-12-16T13:56:27;14.50;99.90
35129;DHT22;21301;43.626;10.580;2022-12-16T13:59:20;14.30;99.90
35129;DHT22;21301;43.626;10.580;2022-12-16T14:02:27;14.20;99.90
35129;DHT22;21301;43.626;10.580;2022-12-16T14:05:18;14.20;99.90
35129;DHT22;21301;43.626;10.580;2022-12-16T14:08:04;14.10;99.90
35129;DHT22;21301;43.626;10.580;2022-12-16T14:10:58;14.00;99.90
35129;DHT22;21301;43.626;10.580;2022-12-16T14:25:20;13.70;99.90
35129;DHT22;21301;43.626;10.580;2022-12-16T14:31:35;13.70;99.90
35129;DHT22;21301;43.626;10.580;2022-12-16T14:34:32;13.60;99.90
35129;DHT22;21301;43.626;10.580;2022-12-16T14:40:03;13.60;99.90
35129;DHT22;21301;43.626;10.580;2022-12-16T14:42:52;13.60;99.90
35129;DHT22;21301;43.626;10.580;2022-12-16T14:45:47;13.60;99.90
35129;DHT22;21301;43.626;10.580;2022-12-16T14:48:35;13.60;99.90
35129;DHT22;21301;43.626;10.580;2022-12-16T14:51:35;13.70;99.90
35129;DHT22;21301;43.626;10.580;2022-12-16T14:54:42;13.60;99.90
35129;DHT22;21301;43.626;10.580;2022-12-16T14:57:29;13.60;99.90
35129;DHT22;21301;43.626;10.580;2022-12-16T15:00:15;13.60;99.90
35129;DHT22;21301;43.626;10.580;2022-12-16T15:03:15;13.50;99.90
35129;DHT22;21301;43.626;10.580;2022-12-16T15:06:40;13.50;99.90
35129;DHT22;21301;43.626;10.580;2022-12-16T15:09:45;13.60;99.90
35129;DHT22;21301;43.626;10.580;2022-12-16T15:12:37;13.60;99.90
35129;DHT22;21301;43.626;10.580;2022-12-16T15:15:31;13.50;99.90
35129;DHT22;21301;43.626;10.580;2022-12-16T15:18:21;13.50;99.90
35129;DHT22;21301;43.626;10.580;2022-12-16T15:21:06;13.50;99.90
35129;DHT22;21301;43.626;10.580;2022-12-16T15:23:51;13.40;99.90
35129;DHT22;21301;43.626;10.580;2022-12-16T15:26:36;13.40;99.90
35129;DHT22;21301;43.626;10.580;2022-12-16T15:29:36;13.40;99.90
35129;DHT22;21301;43.626;10.580;2022-12-16T15:35:25;13.40;99.90
35129;DHT22;21301;43.626;10.580;2022-12-16T15:38:31;13.40;99.90
35129;DHT22;21301;43.626;10.580;2022-12-16T15:41:28;13.30;99.90
35129;DHT22;21301;43.626;10.580;2022-12-16T15:44:21;13.30;99.90
35129;DHT22;21301;43.626;10.580;2022-12-16T15:47:30;13.20;99.90
35129;DHT22;21301;43.626;10.580;2022-12-16T15:50:18;13.20;99.90
35129;DHT22;21301;43.626;10.580;2022-12-16T15:56:43;13.20;99.90
35129;DHT22;21301;43.626;10.580;2022-12-16T15:59:31;13.20;99.90
35129;DHT22;21301;43.626;10.580;2022-12-16T16:02:21;13.20;99.90
35129;DHT22;21301;43.626;10.580;2022-12-16T16:05:11;13.20;99.90
35129;DHT22;21301;43.626;10.580;2022-12-16T16:07:56;13.20;99.90
35129;DHT22;21301;43.626;10.580;2022-12-16T16:10:41;13.20;99.90
35129;DHT22;21301;43.626;10.580;2022-12-16T16:13:26;13.20;99.90
35129;DHT22;21301;43.626;10.580;2022-12-16T16:16:11;13.20;99.90
35129;DHT22;21301;43.626;10.580;2022-12-16T16:18:56;13.20;99.90
35129;DHT22;21301;43.626;10.580;2022-12-16T16:21:40;13.20;99.90
35129;DHT22;21301;43.626;10.580;2022-12-16T16:24:25;13.20;99.90
35129;DHT22;21301;43.626;10.580;2022-12-16T16:27:11;13.20;99.90
35129;DHT22;21301;43.626;10.580;2022-12-16T16:29:57;13.40;99.90
35129;DHT22;21301;43.626;10.580;2022-12-16T16:32:41;13.50;99.90
35129;DHT22;21301;43.626;10.580;2022-12-16T16:35:26;13.50;99.90
35129;DHT22;21301;43.626;10.580;2022-12-16T16:38:10;13.40;99.90
35129;DHT22;21301;43.626;10.580;2022-12-16T16:40:55;13.50;99.90
35129;DHT22;21301;43.626;10.580;2022-12-16T16:43:39;13.50;99.90
35129;DHT22;21301;43.626;10.580;2022-12-16T16:49:10;13.30;99.90
35129;DHT22;21301;43.626;10.580;2022-12-16T16:51:54;13.30;99.90
35129;DHT22;21301;43.626;10.580;2022-12-16T16:54:39;13.40;99.90
35129;DHT22;21301;43.626;10.580;2022-12-16T16:57:25;13.30;99.90
35129;DHT22;21301;43.626;10.580;2022-12-16T17:00:10;13.30;99.90
35129;DHT22;21301;43.626;10.580;2022-12-16T17:02:55;13.20;99.90
35129;DHT22;21301;43.626;10.580;2022-12-16T17:05:39;13.10;99.90
35129;DHT22;21301;43.626;10.580;2022-12-16T17:08:24;13.10;99.90
35129;DHT22;21301;43.626;10.580;2022-12-16T17:11:22;13.10;99.90
35129;DHT22;21301;43.626;10.580;2022-12-16T17:14:12;13.00;99.90
35129;DHT22;21301;43.626;10.580;2022-12-16T17:16:58;13.00;99.90
35129;DHT22;21301;43.626;10.580;2022-12-16T17:19:42;13.00;99.90
35129;DHT22;21301;43.626;10.580;2022-12-16T17:22:27;12.90;99.90
35129;DHT22;21301;43.626;10.580;2022-12-16T17:25:11;12.90;99.90
35129;DHT22;21301;43.626;10.580;2022-12-16T17:27:56;12.90;99.90
35129;DHT22;21301;43.626;10.580;2022-12-16T17:30:41;12.90;99.90
35129;DHT22;21301;43.626;10.580;2022-12-16T17:33:25;12.90;99.90
35129;DHT22;21301;43.626;10.580;2022-12-16T17:36:11;12.80;99.90
35129;DHT22;21301;43.626;10.580;2022-12-16T17:38:56;12.80;99.90
35129;DHT22;21301;43.626;10.580;2022-12-16T17:41:41;12.80;99.90
35129;DHT22;21301;43.626;10.580;2022-12-16T17:44:26;12.80;99.90
35129;DHT22;21301;43.626;10.580;2022-12-16T17:47:10;12.80;99.90
35129;DHT22;21301;43.626;10.580;2022-12-16T17:49:55;12.80;99.90
35129;DHT22;21301;43.626;10.580;2022-12-16T17:52:39;12.70;99.90
35129;DHT22;21301;43.626;10.580;2022-12-16T17:55:23;12.70;99.90
35129;DHT22;21301;43.626;10.580;2022-12-16T17:58:08;12.60;99.90
35129;DHT22;21301;43.626;10.580;2022-12-16T18:00:52;12.60;99.90
35129;DHT22;21301;43.626;10.580;2022-12-16T18:03:37;12.60;99.90
35129;DHT22;21301;43.626;10.580;2022-12-16T18:06:21;12.60;99.90
35129;DHT22;21301;43.626;10.580;2022-12-16T18:09:06;12.70;99.90
35129;DHT22;21301;43.626;10.580;2022-12-16T18:11:52;12.60;99.90
35129;DHT22;21301;43.626;10.580;2022-12-16T18:14:37;12.70;99.90
35129;DHT22;21301;43.626;10.580;2022-12-16T18:17:21;12.70;99.90
35129;DHT22;21301;43.626;10.580;2022-12-16T18:20:06;12.60;99.90
35129;DHT22;21301;43.626;10.580;2022-12-16T18:22:53;12.70;99.90
35129;DHT22;21301;43.626;10.580;2022-12-16T18:25:37;12.70;99.90
35129;DHT22;21301;43.626;10.580;2022-12-16T18:28:21;12.80;99.90
35129;DHT22;21301;43.626;10.580;2022-12-16T18:31:06;12.90;99.90
35129;DHT22;21301;43.626;10.580;2022-12-16T18:33:50;12.80;99.90
35129;DHT22;21301;43.626;10.580;2022-12-16T18:36:35;12.80;99.90
35129;DHT22;21301;43.626;10.580;2022-12-16T18:39:20;12.70;99.90
35129;DHT22;21301;43.626;10.580;2022-12-16T18:42:04;12.80;99.90
35129;DHT22;21301;43.626;10.580;2022-12-16T18:44:49;12.70;99.90
35129;DHT22;21301;43.626;10.580;2022-12-16T18:47:33;12.70;99.90